createdAt,value
2018-05-31T00:02:28.389Z,14.93
2018-05-31T00:04:56.488Z,14.03
2018-05-31T00:07:26.098Z,14.97
2018-05-31T00:09:54.210Z,14.63
2018-05-31T00:12:23.818Z,15.50
2018-05-31T00:14:51.951Z,16.10
2018-05-31T00:17:20.970Z,14.70
2018-05-31T00:19:50.558Z,16.33
2018-05-31T00:22:18.699Z,16.03
2018-05-31T00:24:47.326Z,14.50
2018-05-31T00:27:15.567Z,15.60
2018-05-31T00:29:43.837Z,15.37
2018-05-31T00:32:12.839Z,15.93
2018-05-31T00:34:41.084Z,15.50
2018-05-31T00:37:09.366Z,14.47
2018-05-31T00:39:37.621Z,15.83
2018-05-31T00:42:05.850Z,14.77
2018-05-31T00:44:34.107Z,15.47
2018-05-31T00:47:02.347Z,14.80
2018-05-31T00:49:30.587Z,14.90
2018-05-31T00:51:58.848Z,12.90
2018-05-31T00:54:28.428Z,13.20
2018-05-31T00:56:56.543Z,15.00
2018-05-31T00:59:24.829Z,14.10
2018-05-31T01:01:53.059Z,15.30
2018-05-31T01:04:22.456Z,12.73
2018-05-31T01:06:50.708Z,14.87
2018-05-31T01:09:20.458Z,14.60
2018-05-31T01:11:48.692Z,13.80
2018-05-31T01:14:16.959Z,14.60
2018-05-31T01:16:45.969Z,13.67
2018-05-31T01:19:14.994Z,13.07
2018-05-31T01:21:43.269Z,13.67
2018-05-31T01:24:12.853Z,14.43
2018-05-31T01:26:41.401Z,14.10
2018-05-31T01:29:09.619Z,14.17
2018-05-31T01:31:37.874Z,15.10
2018-05-31T01:34:06.111Z,15.40
2018-05-31T01:36:35.876Z,13.20
2018-05-31T01:39:04.133Z,12.30
2018-05-31T01:41:32.366Z,14.20
2018-05-31T01:44:00.623Z,13.70
2018-05-31T01:46:28.863Z,13.97
2018-05-31T01:48:57.130Z,14.00
2018-05-31T01:51:25.391Z,13.20
2018-05-31T01:53:53.646Z,12.93
2018-05-31T01:56:22.665Z,14.53
2018-05-31T01:58:52.293Z,14.77
2018-05-31T02:01:21.538Z,13.23
2018-05-31T02:03:50.915Z,13.70
2018-05-31T02:06:19.274Z,13.20
2018-05-31T02:08:48.850Z,12.30
2018-05-31T02:11:17.359Z,12.23
2018-05-31T02:13:45.613Z,14.53
2018-05-31T02:16:13.875Z,12.03
2018-05-31T02:18:42.138Z,12.87
2018-05-31T02:21:10.400Z,13.60
2018-05-31T02:23:39.849Z,13.37
2018-05-31T02:26:08.858Z,13.33
2018-05-31T02:28:38.486Z,13.00
2018-05-31T02:31:06.598Z,12.60
2018-05-31T02:33:34.877Z,13.17
2018-05-31T02:36:03.102Z,13.90
2018-05-31T02:38:31.341Z,13.90
2018-05-31T02:40:59.595Z,14.17
2018-05-31T02:43:29.359Z,13.73
2018-05-31T02:45:59.100Z,11.20
2018-05-31T02:48:27.334Z,13.20
2018-05-31T02:50:55.596Z,15.20
2018-05-31T02:53:23.849Z,12.97
2018-05-31T02:55:52.087Z,14.87
2018-05-31T02:58:20.338Z,15.03
2018-05-31T03:00:48.614Z,14.03
2018-05-31T03:03:17.615Z,13.67
2018-05-31T03:05:45.863Z,15.53
2018-05-31T03:08:14.110Z,13.83
2018-05-31T03:10:42.385Z,14.00
2018-05-31T03:13:11.981Z,14.13
2018-05-31T03:15:41.278Z,16.13
2018-05-31T03:18:10.297Z,17.73
2018-05-31T03:20:38.540Z,16.47
2018-05-31T03:23:06.791Z,16.13
2018-05-31T03:25:35.070Z,16.73
2018-05-31T03:28:04.802Z,16.60
2018-05-31T03:30:33.814Z,16.00
2018-05-31T03:33:02.137Z,14.40
2018-05-31T03:35:31.138Z,14.80
2018-05-31T03:38:00.721Z,14.63
2018-05-31T03:40:29.246Z,15.93
2018-05-31T03:42:57.491Z,15.83
2018-05-31T03:45:26.495Z,13.80
2018-05-31T03:47:56.097Z,13.33
2018-05-31T03:50:24.210Z,15.80
2018-05-31T03:52:52.865Z,13.90
2018-05-31T03:55:22.470Z,13.80
2018-05-31T03:57:50.582Z,14.23
2018-05-31T04:00:20.326Z,16.27
2018-05-31T04:02:48.608Z,14.70
2018-05-31T04:05:16.834Z,15.10
2018-05-31T04:07:45.071Z,14.37
2018-05-31T04:10:13.327Z,15.10
2018-05-31T04:12:42.717Z,14.33
2018-05-31T04:15:10.958Z,13.37
2018-05-31T04:17:39.218Z,15.27
2018-05-31T04:20:09.000Z,13.90
2018-05-31T04:22:37.254Z,17.93
2018-05-31T04:25:05.511Z,16.13
2018-05-31T04:27:33.770Z,17.00
2018-05-31T04:30:02.033Z,16.93
2018-05-31T04:32:30.317Z,15.10
2018-05-31T04:34:58.554Z,15.03
2018-05-31T04:37:26.805Z,15.17
2018-05-31T04:39:56.213Z,15.50
2018-05-31T04:42:25.247Z,15.57
2018-05-31T04:44:55.875Z,14.97
2018-05-31T04:47:24.403Z,15.20
2018-05-31T04:49:53.422Z,14.53
2018-05-31T04:52:22.790Z,15.03
2018-05-31T04:54:52.558Z,16.30
2018-05-31T04:57:21.190Z,15.17
2018-05-31T04:59:50.930Z,15.10
2018-05-31T05:02:19.951Z,13.13
2018-05-31T05:04:49.328Z,13.20
2018-05-31T05:07:17.590Z,13.90
2018-05-31T05:09:47.359Z,12.63
2018-05-31T05:12:15.599Z,13.70
2018-05-31T05:14:43.835Z,13.80
2018-05-31T05:17:12.494Z,14.77
2018-05-31T05:19:40.727Z,12.00
2018-05-31T05:22:10.130Z,12.70
2018-05-31T05:24:38.378Z,12.10
2018-05-31T05:27:07.014Z,11.30
2018-05-31T05:29:36.387Z,11.20
2018-05-31T05:32:05.410Z,12.30
2018-05-31T05:34:34.414Z,11.30
2018-05-31T05:37:02.650Z,9.50
2018-05-31T05:39:30.921Z,11.63
2018-05-31T05:41:59.154Z,10.67
2018-05-31T05:44:27.415Z,12.60
2018-05-31T05:46:55.670Z,10.40
2018-05-31T05:49:25.450Z,9.43
2018-05-31T05:51:53.666Z,10.00
2018-05-31T05:54:21.914Z,8.87
2018-05-31T05:56:50.186Z,9.37
2018-05-31T05:59:19.571Z,6.67
2018-05-31T06:01:47.805Z,7.57
2018-05-31T06:04:16.033Z,7.07
2018-05-31T06:06:45.637Z,5.63
2018-05-31T06:09:14.150Z,5.93
2018-05-31T06:11:43.158Z,5.60
2018-05-31T06:14:11.403Z,6.13
2018-05-31T06:16:40.314Z,4.67
2018-05-31T06:19:08.566Z,5.67
2018-05-31T06:21:36.819Z,4.50
2018-05-31T06:24:05.044Z,4.50
2018-05-31T06:26:33.337Z,4.67
2018-05-31T06:29:03.076Z,4.70
2018-05-31T06:31:31.298Z,4.50
2018-05-31T06:34:00.910Z,4.37
2018-05-31T06:36:30.382Z,4.53
2018-05-31T06:38:59.838Z,3.90
2018-05-31T06:41:29.447Z,4.10
2018-05-31T06:43:58.463Z,3.10
2018-05-31T06:46:28.030Z,4.10
2018-05-31T06:48:56.250Z,3.93
2018-05-31T06:51:24.498Z,3.50
2018-05-31T06:53:54.268Z,2.80
2018-05-31T06:56:22.497Z,2.90
2018-05-31T06:58:50.740Z,3.00
2018-05-31T07:01:18.999Z,4.23
2018-05-31T07:03:47.223Z,3.00
2018-05-31T07:06:17.319Z,4.33
2018-05-31T07:08:46.686Z,4.43
2018-05-31T07:11:14.911Z,5.00
2018-05-31T07:13:43.932Z,5.60
2018-05-31T07:16:14.234Z,4.63
2018-05-31T07:18:45.845Z,4.40
2018-05-31T07:21:14.070Z,4.37
2018-05-31T07:23:43.439Z,4.10
2018-05-31T07:26:11.691Z,3.57
2018-05-31T07:28:41.289Z,2.90
2018-05-31T07:31:10.590Z,3.30
2018-05-31T07:33:38.822Z,3.33
2018-05-31T07:36:07.061Z,3.03
2018-05-31T07:38:36.065Z,2.90
2018-05-31T07:41:04.315Z,2.30
2018-05-31T07:43:32.542Z,2.50
2018-05-31T07:46:00.774Z,2.80
2018-05-31T07:48:30.528Z,2.63
2018-05-31T07:50:58.786Z,2.80
2018-05-31T07:53:27.034Z,2.60
2018-05-31T07:55:55.686Z,2.83
2018-05-31T07:58:23.909Z,2.97
2018-05-31T08:00:53.259Z,2.70
2018-05-31T08:03:22.286Z,2.20
2018-05-31T08:05:51.278Z,2.30
2018-05-31T08:08:19.895Z,2.77
2018-05-31T08:10:49.654Z,2.63
2018-05-31T08:13:17.956Z,2.10
2018-05-31T08:15:47.511Z,2.70
2018-05-31T08:18:16.027Z,3.10
2018-05-31T08:20:44.309Z,2.40
2018-05-31T08:23:12.496Z,2.20
2018-05-31T08:25:40.739Z,3.13
2018-05-31T08:28:09.007Z,2.90
2018-05-31T08:30:37.251Z,3.40
2018-05-31T08:33:05.483Z,2.10
2018-05-31T08:35:34.889Z,2.10
2018-05-31T08:38:03.119Z,2.77
2018-05-31T08:40:32.851Z,2.33
2018-05-31T08:43:01.864Z,2.50
2018-05-31T08:45:31.226Z,2.53
2018-05-31T08:47:59.450Z,3.13
2018-05-31T08:50:27.723Z,2.23
2018-05-31T08:52:55.995Z,2.30
2018-05-31T08:55:25.366Z,2.37
2018-05-31T08:57:53.606Z,2.50
2018-05-31T09:00:21.839Z,2.30
2018-05-31T09:02:50.075Z,2.60
2018-05-31T09:05:19.674Z,2.30
2018-05-31T09:07:48.195Z,2.37
2018-05-31T09:10:16.458Z,2.60
2018-05-31T09:12:44.699Z,1.67
2018-05-31T09:15:12.981Z,2.60
2018-05-31T09:17:42.724Z,2.70
2018-05-31T09:20:10.999Z,2.23
2018-05-31T09:22:39.212Z,2.40
2018-05-31T09:25:07.840Z,1.90
2018-05-31T09:27:36.875Z,2.40
2018-05-31T09:30:05.119Z,2.80
2018-05-31T09:32:33.373Z,2.53
2018-05-31T09:35:01.659Z,2.57
2018-05-31T09:37:29.870Z,3.17
2018-05-31T09:39:58.120Z,2.20
2018-05-31T09:42:26.364Z,2.30
2018-05-31T09:44:54.611Z,2.60
2018-05-31T09:47:22.855Z,2.73
2018-05-31T09:49:52.228Z,2.83
2018-05-31T09:52:20.450Z,2.53
2018-05-31T09:54:48.699Z,2.60
2018-05-31T09:57:16.950Z,2.70
2018-05-31T09:59:45.183Z,2.40
2018-05-31T10:02:14.782Z,2.53
2018-05-31T10:04:42.886Z,2.80
2018-05-31T10:07:11.115Z,2.90
2018-05-31T10:09:39.382Z,2.27
2018-05-31T10:12:07.630Z,3.00
2018-05-31T10:14:35.851Z,3.23
2018-05-31T10:17:10.172Z,2.47
2018-05-31T10:19:39.953Z,2.50
2018-05-31T10:22:08.183Z,3.00
2018-05-31T10:24:37.879Z,3.10
2018-05-31T10:27:06.136Z,3.60
2018-05-31T10:29:35.527Z,3.53
2018-05-31T10:32:03.755Z,4.50
2018-05-31T10:34:32.790Z,2.93
2018-05-31T10:37:01.025Z,3.27
2018-05-31T10:39:30.072Z,3.30
2018-05-31T10:41:58.283Z,3.30
2018-05-31T10:44:26.532Z,3.10
2018-05-31T10:46:54.770Z,4.40
2018-05-31T10:49:23.044Z,4.03
2018-05-31T10:51:51.286Z,4.60
2018-05-31T10:54:19.516Z,4.00
2018-05-31T10:56:49.282Z,3.73
2018-05-31T10:59:17.560Z,3.10
2018-05-31T11:01:45.751Z,3.70
2018-05-31T11:04:15.519Z,3.50
2018-05-31T11:06:43.778Z,4.00
2018-05-31T11:09:13.371Z,4.83
2018-05-31T11:11:42.852Z,4.80
2018-05-31T11:14:12.327Z,4.03
2018-05-31T11:16:40.474Z,4.40
2018-05-31T11:19:10.328Z,3.33
2018-05-31T11:21:38.624Z,3.80
2018-05-31T11:24:07.203Z,3.77
2018-05-31T11:26:36.957Z,4.47
2018-05-31T11:29:06.336Z,4.63
2018-05-31T11:31:34.579Z,5.00
2018-05-31T11:34:03.599Z,5.30
2018-05-31T11:36:33.351Z,5.60
2018-05-31T11:39:02.728Z,5.70
2018-05-31T11:41:31.737Z,5.73
2018-05-31T11:43:59.958Z,5.50
2018-05-31T11:46:29.127Z,6.43
2018-05-31T11:48:57.359Z,6.53
2018-05-31T11:51:25.607Z,5.20
2018-05-31T11:53:53.873Z,6.60
2018-05-31T11:56:22.149Z,38.27
2018-05-31T11:58:51.879Z,6.70
2018-05-31T12:01:20.111Z,6.47
2018-05-31T12:03:48.380Z,6.23
2018-05-31T12:06:18.122Z,7.30
2018-05-31T12:08:46.385Z,7.10
2018-05-31T12:11:15.386Z,6.37
2018-05-31T12:13:45.199Z,5.33
2018-05-31T12:16:14.590Z,5.77
2018-05-31T12:18:43.592Z,6.77
2018-05-31T12:21:12.955Z,8.63
2018-05-31T12:23:41.207Z,7.00
2018-05-31T12:26:09.452Z,7.50
2018-05-31T12:28:37.674Z,8.03
2018-05-31T12:31:05.925Z,8.63
2018-05-31T12:33:35.310Z,6.63
2018-05-31T12:36:03.552Z,6.50
2018-05-31T12:38:32.555Z,6.60
2018-05-31T12:41:01.578Z,7.00
2018-05-31T12:43:29.822Z,6.90
2018-05-31T12:45:58.047Z,7.53
2018-05-31T12:48:26.329Z,7.00
2018-05-31T12:50:56.065Z,6.80
2018-05-31T12:53:24.287Z,7.13
2018-05-31T12:55:52.940Z,6.90
2018-05-31T12:58:22.310Z,8.13
2018-05-31T13:00:50.547Z,8.70
2018-05-31T13:03:18.796Z,7.53
2018-05-31T13:05:48.649Z,8.40
2018-05-31T13:08:18.211Z,8.93
2018-05-31T13:10:47.122Z,7.93
2018-05-31T13:13:15.423Z,9.27
2018-05-31T13:15:43.667Z,10.27
2018-05-31T13:18:13.418Z,8.97
2018-05-31T13:20:41.675Z,9.10
2018-05-31T13:23:09.934Z,12.23
2018-05-31T13:25:38.162Z,11.80
2018-05-31T13:28:06.717Z,12.00
2018-05-31T13:30:35.828Z,10.67
2018-05-31T13:33:04.846Z,11.17
2018-05-31T13:35:34.244Z,8.77
2018-05-31T13:38:02.503Z,10.30
2018-05-31T13:40:30.766Z,12.27
2018-05-31T13:42:59.019Z,9.07
2018-05-31T13:45:27.294Z,9.10
2018-05-31T13:47:55.527Z,9.20
2018-05-31T13:50:23.806Z,9.90
2018-05-31T13:52:52.842Z,9.37
2018-05-31T13:55:21.078Z,11.77
2018-05-31T13:57:49.335Z,11.90
2018-05-31T14:00:17.564Z,10.10
2018-05-31T14:02:45.803Z,10.17
2018-05-31T14:05:15.563Z,12.33
2018-05-31T14:07:43.819Z,11.53
2018-05-31T14:10:12.064Z,10.00
2018-05-31T14:12:40.319Z,10.60
2018-05-31T14:15:08.558Z,10.63
2018-05-31T14:17:36.798Z,9.70
2018-05-31T14:20:05.051Z,10.30
2018-05-31T14:22:34.654Z,11.50
2018-05-31T14:25:02.793Z,10.17
2018-05-31T14:27:31.054Z,10.30
2018-05-31T14:29:59.307Z,10.90
2018-05-31T14:32:27.562Z,11.40
2018-05-31T14:34:55.803Z,9.47
2018-05-31T14:37:24.819Z,10.73
2018-05-31T14:39:53.060Z,12.77
2018-05-31T14:42:22.061Z,10.30
2018-05-31T14:44:51.102Z,10.57
2018-05-31T14:47:19.342Z,12.47
2018-05-31T14:49:48.342Z,13.20
2018-05-31T14:52:17.522Z,11.60
2018-05-31T14:54:45.774Z,10.20
2018-05-31T14:57:14.775Z,12.20
2018-05-31T14:59:44.547Z,10.63
2018-05-31T15:02:14.175Z,11.20
2018-05-31T15:04:42.275Z,8.90
2018-05-31T15:07:11.298Z,10.50
2018-05-31T15:09:40.328Z,8.50
2018-05-31T15:12:08.637Z,8.87
2018-05-31T15:14:36.887Z,10.00
2018-05-31T15:17:05.150Z,9.50
2018-05-31T15:19:34.933Z,9.97
2018-05-31T15:22:04.775Z,7.13
2018-05-31T15:24:32.994Z,8.63
2018-05-31T15:27:02.029Z,8.93
2018-05-31T15:29:30.283Z,8.03
2018-05-31T15:31:59.299Z,8.17
2018-05-31T15:34:27.535Z,8.83
2018-05-31T15:36:56.550Z,9.13
2018-05-31T15:39:25.934Z,6.97
2018-05-31T15:41:54.970Z,5.47
2018-05-31T15:44:24.567Z,6.43
2018-05-31T15:46:52.685Z,7.30
2018-05-31T15:49:20.939Z,6.10
2018-05-31T15:51:50.518Z,7.37
2018-05-31T15:54:18.627Z,6.50
2018-05-31T15:56:46.899Z,6.40
2018-05-31T15:59:15.143Z,7.27
2018-05-31T16:01:43.390Z,6.70
2018-05-31T16:04:14.190Z,6.00
2018-05-31T16:06:46.923Z,5.83
2018-05-31T16:09:15.955Z,5.57
2018-05-31T16:11:45.553Z,6.63
2018-05-31T16:14:14.074Z,6.37
2018-05-31T16:16:42.318Z,5.97
2018-05-31T16:19:11.366Z,5.00
2018-05-31T16:21:39.668Z,5.70
2018-05-31T16:24:07.959Z,6.97
2018-05-31T16:26:36.191Z,5.90
2018-05-31T16:29:04.437Z,6.67
2018-05-31T16:31:32.702Z,7.90
2018-05-31T16:34:00.946Z,6.43
2018-05-31T16:36:29.190Z,6.13
2018-05-31T16:38:57.458Z,5.90
2018-05-31T16:41:26.490Z,6.30
2018-05-31T16:43:54.731Z,6.27
2018-05-31T16:46:23.390Z,5.10
2018-05-31T16:48:51.661Z,11.47
2018-05-31T16:51:21.254Z,11.37
2018-05-31T16:53:49.392Z,10.40
2018-05-31T16:56:18.048Z,11.37
2018-05-31T16:58:46.308Z,9.93
2018-05-31T17:01:15.309Z,12.83
2018-05-31T17:03:44.331Z,12.80
2018-05-31T17:06:13.753Z,12.30
2018-05-31T17:08:41.978Z,11.50
2018-05-31T17:11:10.234Z,11.67
2018-05-31T17:13:38.490Z,11.33
2018-05-31T17:16:06.731Z,11.00
2018-05-31T17:18:34.987Z,10.90
2018-05-31T17:21:03.223Z,9.70
2018-05-31T17:23:32.237Z,9.93
2018-05-31T17:26:00.502Z,11.03
2018-05-31T17:28:28.746Z,11.90
2018-05-31T17:30:57.043Z,11.87
2018-05-31T17:33:25.283Z,10.80
2018-05-31T17:35:55.066Z,11.30
2018-05-31T17:38:24.655Z,10.33
2018-05-31T17:40:53.182Z,11.87
2018-05-31T17:43:21.439Z,12.83
2018-05-31T17:45:49.683Z,14.17
2018-05-31T17:48:17.959Z,11.37
2018-05-31T17:50:46.225Z,13.27
2018-05-31T17:53:14.474Z,14.03
2018-05-31T17:55:43.862Z,11.70
2018-05-31T17:58:12.133Z,13.10
2018-05-31T18:00:40.409Z,12.03
2018-05-31T18:03:10.632Z,14.00
2018-05-31T18:05:40.750Z,12.50
2018-05-31T18:08:08.867Z,12.97
2018-05-31T18:10:37.102Z,12.30
2018-05-31T18:13:06.314Z,12.17
2018-05-31T18:15:35.338Z,11.27
2018-05-31T18:18:04.353Z,12.37
2018-05-31T18:20:33.007Z,12.03
2018-05-31T18:23:02.248Z,12.57
2018-05-31T18:25:31.268Z,12.00
2018-05-31T18:27:59.507Z,11.93
2018-05-31T18:30:27.762Z,13.27
2018-05-31T18:32:55.999Z,11.40
2018-05-31T18:35:24.239Z,12.77
2018-05-31T18:37:53.635Z,14.20
2018-05-31T18:40:22.659Z,12.47
2018-05-31T18:42:52.031Z,12.30
2018-05-31T18:45:21.055Z,12.50
2018-05-31T18:47:50.648Z,14.97
2018-05-31T18:50:18.762Z,15.10
2018-05-31T18:52:47.078Z,13.20
2018-05-31T18:55:15.325Z,12.13
2018-05-31T18:57:43.555Z,10.87
2018-05-31T19:00:11.818Z,11.30
2018-05-31T19:02:40.844Z,10.53
2018-05-31T19:05:09.090Z,11.30
2018-05-31T19:07:40.370Z,11.57
2018-05-31T19:10:09.003Z,10.43
2018-05-31T19:12:44.170Z,10.63
2018-05-31T19:17:49.535Z,11.73
2018-05-31T19:20:17.795Z,11.17
2018-05-31T19:22:46.026Z,9.80
2018-05-31T19:25:19.638Z,10.70
2018-05-31T19:27:48.149Z,11.90
2018-05-31T19:30:23.568Z,10.80
2018-05-31T19:32:52.078Z,12.50
2018-05-31T19:35:25.976Z,11.30
2018-05-31T19:37:55.000Z,11.17
2018-05-31T19:40:23.256Z,12.50
2018-05-31T19:42:58.330Z,12.73
2018-05-31T19:45:27.334Z,11.70
2018-05-31T19:47:55.570Z,11.90
2018-05-31T19:50:24.966Z,12.87
2018-05-31T19:52:58.895Z,13.03
2018-05-31T19:55:27.901Z,14.30
2018-05-31T19:58:01.728Z,12.80
2018-05-31T20:00:36.959Z,12.63
2018-05-31T20:03:11.182Z,13.90
2018-05-31T20:05:39.820Z,14.57
2018-05-31T20:08:08.051Z,14.80
2018-05-31T20:10:37.666Z,14.70
2018-05-31T20:13:06.546Z,14.87
2018-05-31T20:15:34.788Z,16.83
2018-05-31T20:18:03.052Z,16.50
2018-05-31T20:20:32.434Z,15.80
2018-05-31T20:23:00.667Z,15.47
2018-05-31T20:25:28.928Z,16.30
2018-05-31T20:27:57.160Z,15.70
2018-05-31T20:30:25.406Z,15.23
2018-05-31T20:32:53.668Z,15.50
2018-05-31T20:35:21.940Z,16.10
2018-05-31T20:37:50.951Z,18.10
2018-05-31T20:40:19.983Z,17.97
2018-05-31T20:42:49.375Z,16.63
2018-05-31T20:45:17.616Z,17.60
2018-05-31T20:47:46.643Z,16.87
2018-05-31T20:50:15.651Z,18.60
2018-05-31T20:52:44.655Z,15.40
2018-05-31T20:55:14.067Z,16.80
2018-05-31T20:57:42.299Z,17.83
2018-05-31T21:00:10.935Z,17.77
2018-05-31T21:02:39.197Z,18.87
2018-05-31T21:05:08.212Z,17.80
2018-05-31T21:07:37.795Z,18.80
2018-05-31T21:12:40.768Z,18.10
2018-05-31T21:15:09.004Z,17.97
2018-05-31T21:17:37.239Z,19.60
2018-05-31T21:20:05.559Z,17.77
2018-05-31T21:22:34.150Z,18.97
2018-05-31T21:25:03.167Z,17.40
2018-05-31T21:27:31.436Z,18.27
2018-05-31T21:29:59.674Z,19.00
2018-05-31T21:32:28.360Z,19.43
2018-05-31T21:34:57.773Z,17.90
2018-05-31T21:37:27.541Z,19.40
2018-05-31T21:42:56.287Z,18.03
2018-05-31T21:48:34.605Z,18.37
2018-05-31T21:57:00.384Z,19.03
2018-05-31T21:59:29.983Z,17.77
2018-05-31T22:01:59.506Z,18.40
2018-05-31T22:04:27.770Z,17.67
2018-05-31T22:06:58.175Z,18.40
2018-05-31T22:09:27.175Z,18.47
2018-05-31T22:11:55.434Z,17.17
2018-05-31T22:14:23.697Z,17.03
2018-05-31T22:16:51.952Z,16.10
2018-05-31T22:19:20.413Z,16.70
2018-05-31T22:21:48.622Z,18.00
2018-05-31T22:24:16.859Z,15.53
2018-05-31T22:26:45.883Z,16.30
2018-05-31T22:29:15.485Z,14.97
2018-05-31T22:31:44.371Z,16.00
2018-05-31T22:37:05.287Z,16.13
2018-05-31T22:39:33.552Z,15.33
2018-05-31T22:42:03.336Z,15.23
2018-05-31T22:44:31.587Z,14.67
2018-05-31T22:46:59.859Z,16.20
2018-05-31T22:49:34.743Z,15.40
2018-05-31T22:52:03.756Z,13.70
2018-05-31T22:54:33.389Z,14.70
2018-05-31T22:57:02.293Z,13.50
2018-05-31T22:59:31.692Z,14.33
2018-05-31T23:01:59.955Z,14.93
2018-05-31T23:04:28.204Z,14.23
2018-05-31T23:06:56.467Z,15.43
2018-05-31T23:09:24.730Z,17.07
2018-05-31T23:11:54.110Z,14.90
2018-05-31T23:14:22.763Z,14.50
2018-05-31T23:16:52.164Z,14.90
2018-05-31T23:19:20.807Z,13.57
2018-05-31T23:21:50.571Z,14.90
2018-05-31T23:24:18.832Z,14.50
2018-05-31T23:26:48.422Z,13.80
2018-05-31T23:29:17.676Z,14.43
2018-05-31T23:31:47.080Z,15.30
2018-05-31T23:34:16.119Z,15.23
2018-05-31T23:36:45.120Z,15.17
2018-05-31T23:39:13.779Z,14.93
2018-05-31T23:41:43.386Z,14.70
2018-05-31T23:44:11.503Z,15.10
2018-05-31T23:46:40.522Z,14.97
2018-05-31T23:49:09.942Z,14.90
2018-05-31T23:51:38.584Z,15.13
2018-05-31T23:54:06.845Z,15.27
2018-05-31T23:56:36.467Z,16.27
2018-05-31T23:59:04.585Z,16.00
